sensor_id;sensor_type;location;lat;lon;timestamp;P1;durP1;ratioP1;P2;durP2;ratioP2
22737;SDS011;11536;50.860;4.286;2024-03-23T00:56:12;6.40;;;1.25;;
22737;SDS011;11536;50.860;4.286;2024-03-23T00:58:38;6.32;;;1.55;;
22737;SDS011;11536;50.860;4.286;2024-03-23T01:01:03;6.00;;;1.60;;
22737;SDS011;11536;50.860;4.286;2024-03-23T01:03:29;7.70;;;1.90;;
22737;SDS011;11536;50.860;4.286;2024-03-23T01:05:58;6.70;;;1.90;;
22737;SDS011;11536;50.860;4.286;2024-03-23T01:08:25;11.27;;;2.25;;
22737;SDS011;11536;50.860;4.286;2024-03-23T01:10:57;7.47;;;2.00;;
22737;SDS011;11536;50.860;4.286;2024-03-23T01:13:27;10.20;;;2.25;;
22737;SDS011;11536;50.860;4.286;2024-03-23T01:15:54;7.57;;;2.30;;
22737;SDS011;11536;50.860;4.286;2024-03-23T01:18:22;6.68;;;2.28;;
22737;SDS011;11536;50.860;4.286;2024-03-23T01:20:48;7.72;;;2.45;;
22737;SDS011;11536;50.860;4.286;2024-03-23T01:23:14;8.23;;;2.38;;
22737;SDS011;11536;50.860;4.286;2024-03-23T01:25:40;6.88;;;2.13;;
22737;SDS011;11536;50.860;4.286;2024-03-23T01:28:06;7.68;;;2.67;;
22737;SDS011;11536;50.860;4.286;2024-03-23T01:30:33;8.90;;;2.67;;
22737;SDS011;11536;50.860;4.286;2024-03-23T01:32:59;9.68;;;2.97;;
22737;SDS011;11536;50.860;4.286;2024-03-23T01:35:24;6.95;;;2.55;;
22737;SDS011;11536;50.860;4.286;2024-03-23T01:37:51;8.32;;;2.67;;
22737;SDS011;11536;50.860;4.286;2024-03-23T01:40:17;10.27;;;2.42;;
22737;SDS011;11536;50.860;4.286;2024-03-23T01:42:42;8.98;;;2.58;;
22737;SDS011;11536;50.860;4.286;2024-03-23T01:45:19;8.57;;;2.90;;
22737;SDS011;11536;50.860;4.286;2024-03-23T01:47:46;9.77;;;2.30;;
22737;SDS011;11536;50.860;4.286;2024-03-23T01:50:12;9.05;;;2.33;;
22737;SDS011;11536;50.860;4.286;2024-03-23T01:52:39;7.15;;;2.58;;
22737;SDS011;11536;50.860;4.286;2024-03-23T01:55:04;10.30;;;2.83;;
22737;SDS011;11536;50.860;4.286;2024-03-23T01:57:30;9.15;;;2.80;;
22737;SDS011;11536;50.860;4.286;2024-03-23T01:59:56;10.02;;;2.80;;
22737;SDS011;11536;50.860;4.286;2024-03-23T02:02:21;8.57;;;2.38;;
22737;SDS011;11536;50.860;4.286;2024-03-23T02:04:47;7.28;;;2.60;;
22737;SDS011;11536;50.860;4.286;2024-03-23T02:07:13;9.23;;;2.95;;
22737;SDS011;11536;50.860;4.286;2024-03-23T02:09:38;11.50;;;2.90;;
22737;SDS011;11536;50.860;4.286;2024-03-23T02:12:04;9.90;;;3.25;;
22737;SDS011;11536;50.860;4.286;2024-03-23T02:14:30;13.10;;;4.43;;
22737;SDS011;11536;50.860;4.286;2024-03-23T02:16:57;10.00;;;3.60;;
22737;SDS011;11536;50.860;4.286;2024-03-23T02:19:23;11.50;;;3.63;;
22737;SDS011;11536;50.860;4.286;2024-03-23T02:21:49;13.23;;;4.40;;
22737;SDS011;11536;50.860;4.286;2024-03-23T02:24:14;12.85;;;4.38;;
22737;SDS011;11536;50.860;4.286;2024-03-23T02:26:40;12.10;;;4.53;;
22737;SDS011;11536;50.860;4.286;2024-03-23T02:29:06;13.93;;;4.50;;
22737;SDS011;11536;50.860;4.286;2024-03-23T02:31:31;13.00;;;4.65;;
22737;SDS011;11536;50.860;4.286;2024-03-23T02:33:57;14.18;;;4.63;;
22737;SDS011;11536;50.860;4.286;2024-03-23T02:36:23;15.20;;;5.30;;
22737;SDS011;11536;50.860;4.286;2024-03-23T02:38:48;15.02;;;4.53;;
22737;SDS011;11536;50.860;4.286;2024-03-23T02:41:14;11.85;;;4.82;;
22737;SDS011;11536;50.860;4.286;2024-03-23T02:43:40;13.98;;;5.28;;
22737;SDS011;11536;50.860;4.286;2024-03-23T02:46:06;15.70;;;4.93;;
22737;SDS011;11536;50.860;4.286;2024-03-23T02:48:31;15.95;;;4.70;;
22737;SDS011;11536;50.860;4.286;2024-03-23T02:50:58;15.60;;;5.30;;
22737;SDS011;11536;50.860;4.286;2024-03-23T02:53:24;10.75;;;4.68;;
22737;SDS011;11536;50.860;4.286;2024-03-23T02:55:49;15.88;;;5.15;;
22737;SDS011;11536;50.860;4.286;2024-03-23T02:58:15;15.85;;;5.10;;
22737;SDS011;11536;50.860;4.286;2024-03-23T03:00:40;12.38;;;4.97;;
22737;SDS011;11536;50.860;4.286;2024-03-23T03:03:06;18.17;;;5.28;;
22737;SDS011;11536;50.860;4.286;2024-03-23T03:05:32;15.07;;;4.57;;
22737;SDS011;11536;50.860;4.286;2024-03-23T03:07:58;16.50;;;5.32;;
22737;SDS011;11536;50.860;4.286;2024-03-23T03:10:23;14.93;;;5.43;;
22737;SDS011;11536;50.860;4.286;2024-03-23T03:12:49;12.77;;;4.80;;
22737;SDS011;11536;50.860;4.286;2024-03-23T03:15:14;10.27;;;4.18;;
22737;SDS011;11536;50.860;4.286;2024-03-23T03:17:40;13.15;;;4.55;;
22737;SDS011;11536;50.860;4.286;2024-03-23T03:20:06;13.15;;;4.97;;
22737;SDS011;11536;50.860;4.286;2024-03-23T03:22:32;16.50;;;4.50;;
22737;SDS011;11536;50.860;4.286;2024-03-23T03:24:57;10.98;;;4.25;;
22737;SDS011;11536;50.860;4.286;2024-03-23T03:27:25;14.82;;;4.32;;
22737;SDS011;11536;50.860;4.286;2024-03-23T03:29:50;15.60;;;4.95;;
22737;SDS011;11536;50.860;4.286;2024-03-23T03:32:16;11.50;;;4.40;;
22737;SDS011;11536;50.860;4.286;2024-03-23T03:34:41;12.43;;;4.47;;
22737;SDS011;11536;50.860;4.286;2024-03-23T03:37:07;11.50;;;4.80;;
22737;SDS011;11536;50.860;4.286;2024-03-23T03:39:33;13.20;;;4.88;;
22737;SDS011;11536;50.860;4.286;2024-03-23T03:41:58;11.50;;;4.50;;
22737;SDS011;11536;50.860;4.286;2024-03-23T03:44:25;10.70;;;4.70;;
22737;SDS011;11536;50.860;4.286;2024-03-23T03:46:51;9.48;;;4.30;;
22737;SDS011;11536;50.860;4.286;2024-03-23T03:49:16;15.65;;;5.13;;
22737;SDS011;11536;50.860;4.286;2024-03-23T03:51:42;13.52;;;4.70;;
22737;SDS011;11536;50.860;4.286;2024-03-23T03:54:07;14.60;;;5.45;;
22737;SDS011;11536;50.860;4.286;2024-03-23T03:56:33;11.65;;;4.43;;
22737;SDS011;11536;50.860;4.286;2024-03-23T03:58:59;10.20;;;4.47;;
22737;SDS011;11536;50.860;4.286;2024-03-23T04:01:24;13.65;;;4.80;;
22737;SDS011;11536;50.860;4.286;2024-03-23T04:03:50;13.10;;;5.05;;
22737;SDS011;11536;50.860;4.286;2024-03-23T04:06:19;12.70;;;4.93;;
22737;SDS011;11536;50.860;4.286;2024-03-23T04:08:45;11.98;;;4.65;;
22737;SDS011;11536;50.860;4.286;2024-03-23T04:11:10;14.38;;;5.20;;
22737;SDS011;11536;50.860;4.286;2024-03-23T04:13:36;12.60;;;4.90;;
22737;SDS011;11536;50.860;4.286;2024-03-23T04:16:02;13.18;;;4.95;;
22737;SDS011;11536;50.860;4.286;2024-03-23T04:18:28;15.23;;;4.97;;
22737;SDS011;11536;50.860;4.286;2024-03-23T04:20:54;12.13;;;4.75;;
22737;SDS011;11536;50.860;4.286;2024-03-23T04:23:19;10.93;;;4.03;;
22737;SDS011;11536;50.860;4.286;2024-03-23T04:25:46;12.18;;;4.25;;
22737;SDS011;11536;50.860;4.286;2024-03-23T04:28:11;14.00;;;4.43;;
22737;SDS011;11536;50.860;4.286;2024-03-23T04:30:37;12.60;;;4.35;;
22737;SDS011;11536;50.860;4.286;2024-03-23T04:33:03;12.15;;;3.97;;
22737;SDS011;11536;50.860;4.286;2024-03-23T04:35:30;10.80;;;4.57;;
22737;SDS011;11536;50.860;4.286;2024-03-23T04:37:55;15.85;;;4.30;;
22737;SDS011;11536;50.860;4.286;2024-03-23T04:40:23;13.98;;;4.30;;
22737;SDS011;11536;50.860;4.286;2024-03-23T04:42:49;12.63;;;4.03;;
22737;SDS011;11536;50.860;4.286;2024-03-23T04:45:15;8.85;;;3.55;;
22737;SDS011;11536;50.860;4.286;2024-03-23T04:47:40;13.70;;;3.95;;
22737;SDS011;11536;50.860;4.286;2024-03-23T04:50:06;16.15;;;4.35;;
22737;SDS011;11536;50.860;4.286;2024-03-23T04:52:32;9.57;;;3.55;;
22737;SDS011;11536;50.860;4.286;2024-03-23T04:54:58;13.38;;;4.05;;
22737;SDS011;11536;50.860;4.286;2024-03-23T04:57:23;12.20;;;3.72;;
22737;SDS011;11536;50.860;4.286;2024-03-23T04:59:49;11.55;;;3.58;;
22737;SDS011;11536;50.860;4.286;2024-03-23T05:02:15;11.38;;;3.72;;
22737;SDS011;11536;50.860;4.286;2024-03-23T05:04:41;12.20;;;3.58;;
22737;SDS011;11536;50.860;4.286;2024-03-23T05:07:07;13.48;;;3.78;;
22737;SDS011;11536;50.860;4.286;2024-03-23T05:09:33;9.98;;;3.92;;
22737;SDS011;11536;50.860;4.286;2024-03-23T05:11:59;10.30;;;4.30;;
22737;SDS011;11536;50.860;4.286;2024-03-23T05:14:28;10.98;;;3.72;;
22737;SDS011;11536;50.860;4.286;2024-03-23T05:16:53;11.00;;;4.28;;
22737;SDS011;11536;50.860;4.286;2024-03-23T05:19:19;12.20;;;4.30;;
22737;SDS011;11536;50.860;4.286;2024-03-23T05:21:45;12.27;;;4.20;;
22737;SDS011;11536;50.860;4.286;2024-03-23T05:24:11;8.52;;;3.85;;
22737;SDS011;11536;50.860;4.286;2024-03-23T05:26:37;12.30;;;4.13;;
22737;SDS011;11536;50.860;4.286;2024-03-23T05:29:03;9.30;;;3.75;;
22737;SDS011;11536;50.860;4.286;2024-03-23T05:31:29;11.77;;;3.88;;
22737;SDS011;11536;50.860;4.286;2024-03-23T05:33:56;12.90;;;3.78;;
22737;SDS011;11536;50.860;4.286;2024-03-23T05:36:22;11.57;;;3.72;;
22737;SDS011;11536;50.860;4.286;2024-03-23T05:38:49;9.95;;;3.60;;
22737;SDS011;11536;50.860;4.286;2024-03-23T05:41:15;13.23;;;2.95;;
22737;SDS011;11536;50.860;4.286;2024-03-23T05:43:40;10.10;;;3.13;;
22737;SDS011;11536;50.860;4.286;2024-03-23T05:46:06;16.98;;;2.72;;
22737;SDS011;11536;50.860;4.286;2024-03-23T05:48:35;8.95;;;2.70;;
22737;SDS011;11536;50.860;4.286;2024-03-23T05:51:01;13.73;;;2.90;;
22737;SDS011;11536;50.860;4.286;2024-03-23T05:53:26;13.93;;;2.53;;
22737;SDS011;11536;50.860;4.286;2024-03-23T05:56:04;10.25;;;2.50;;
22737;SDS011;11536;50.860;4.286;2024-03-23T05:58:30;9.90;;;2.47;;
22737;SDS011;11536;50.860;4.286;2024-03-23T06:01:01;6.30;;;2.20;;
22737;SDS011;11536;50.860;4.286;2024-03-23T06:03:27;11.48;;;2.13;;
22737;SDS011;11536;50.860;4.286;2024-03-23T06:05:53;11.98;;;2.35;;
22737;SDS011;11536;50.860;4.286;2024-03-23T06:08:19;6.90;;;1.52;;
22737;SDS011;11536;50.860;4.286;2024-03-23T06:10:45;7.90;;;1.50;;
22737;SDS011;11536;50.860;4.286;2024-03-23T06:13:11;8.32;;;1.40;;
22737;SDS011;11536;50.860;4.286;2024-03-23T06:15:37;15.10;;;2.08;;
22737;SDS011;11536;50.860;4.286;2024-03-23T06:18:03;10.68;;;1.60;;
22737;SDS011;11536;50.860;4.286;2024-03-23T06:20:30;10.05;;;1.58;;
22737;SDS011;11536;50.860;4.286;2024-03-23T06:22:56;8.65;;;1.42;;
22737;SDS011;11536;50.860;4.286;2024-03-23T06:25:21;7.05;;;1.42;;
22737;SDS011;11536;50.860;4.286;2024-03-23T06:27:47;9.25;;;1.52;;
22737;SDS011;11536;50.860;4.286;2024-03-23T06:30:13;7.97;;;1.40;;
22737;SDS011;11536;50.860;4.286;2024-03-23T06:32:39;4.82;;;1.30;;
22737;SDS011;11536;50.860;4.286;2024-03-23T06:35:04;8.18;;;1.38;;
22737;SDS011;11536;50.860;4.286;2024-03-23T06:37:35;7.10;;;1.40;;
22737;SDS011;11536;50.860;4.286;2024-03-23T06:40:01;7.22;;;1.35;;
22737;SDS011;11536;50.860;4.286;2024-03-23T06:42:27;8.75;;;1.83;;
22737;SDS011;11536;50.860;4.286;2024-03-23T06:44:53;12.77;;;1.65;;
22737;SDS011;11536;50.860;4.286;2024-03-23T06:47:19;10.90;;;1.73;;
22737;SDS011;11536;50.860;4.286;2024-03-23T06:49:45;11.38;;;1.20;;
22737;SDS011;11536;50.860;4.286;2024-03-23T06:52:10;9.55;;;1.08;;
22737;SDS011;11536;50.860;4.286;2024-03-23T06:54:36;12.00;;;2.15;;
22737;SDS011;11536;50.860;4.286;2024-03-23T06:57:02;6.47;;;1.20;;
22737;SDS011;11536;50.860;4.286;2024-03-23T06:59:28;8.35;;;1.10;;
22737;SDS011;11536;50.860;4.286;2024-03-23T07:01:53;6.90;;;1.10;;
22737;SDS011;11536;50.860;4.286;2024-03-23T07:04:19;7.78;;;1.52;;
22737;SDS011;11536;50.860;4.286;2024-03-23T07:06:45;5.55;;;1.20;;
22737;SDS011;11536;50.860;4.286;2024-03-23T07:09:11;9.52;;;1.85;;
22737;SDS011;11536;50.860;4.286;2024-03-23T07:11:38;10.15;;;1.27;;
22737;SDS011;11536;50.860;4.286;2024-03-23T07:14:03;4.88;;;1.40;;
22737;SDS011;11536;50.860;4.286;2024-03-23T07:16:29;4.78;;;1.30;;
22737;SDS011;11536;50.860;4.286;2024-03-23T07:18:55;3.75;;;1.00;;
22737;SDS011;11536;50.860;4.286;2024-03-23T07:21:21;6.68;;;1.40;;
22737;SDS011;11536;50.860;4.286;2024-03-23T07:23:47;6.95;;;1.33;;
22737;SDS011;11536;50.860;4.286;2024-03-23T07:26:12;5.57;;;1.40;;
22737;SDS011;11536;50.860;4.286;2024-03-23T07:28:38;6.25;;;1.50;;
22737;SDS011;11536;50.860;4.286;2024-03-23T07:31:09;10.13;;;1.77;;
22737;SDS011;11536;50.860;4.286;2024-03-23T07:33:38;7.35;;;1.67;;
22737;SDS011;11536;50.860;4.286;2024-03-23T07:36:07;9.63;;;1.92;;
22737;SDS011;11536;50.860;4.286;2024-03-23T07:38:33;9.60;;;1.75;;
22737;SDS011;11536;50.860;4.286;2024-03-23T07:41:09;12.10;;;2.20;;
22737;SDS011;11536;50.860;4.286;2024-03-23T07:43:35;7.97;;;1.80;;
22737;SDS011;11536;50.860;4.286;2024-03-23T07:46:05;8.23;;;1.45;;
22737;SDS011;11536;50.860;4.286;2024-03-23T07:48:31;4.47;;;1.30;;
22737;SDS011;11536;50.860;4.286;2024-03-23T07:51:00;9.25;;;1.60;;
22737;SDS011;11536;50.860;4.286;2024-03-23T07:53:30;6.13;;;1.35;;
22737;SDS011;11536;50.860;4.286;2024-03-23T07:56:00;8.35;;;1.40;;
22737;SDS011;11536;50.860;4.286;2024-03-23T07:58:28;11.65;;;1.50;;
22737;SDS011;11536;50.860;4.286;2024-03-23T08:01:02;10.00;;;1.23;;
22737;SDS011;11536;50.860;4.286;2024-03-23T08:03:39;11.48;;;1.42;;
22737;SDS011;11536;50.860;4.286;2024-03-23T08:06:15;10.00;;;1.48;;
22737;SDS011;11536;50.860;4.286;2024-03-23T08:08:43;11.82;;;1.33;;
22737;SDS011;11536;50.860;4.286;2024-03-23T08:11:11;5.55;;;1.15;;
22737;SDS011;11536;50.860;4.286;2024-03-23T08:13:38;13.40;;;1.58;;
22737;SDS011;11536;50.860;4.286;2024-03-23T08:16:05;10.43;;;1.65;;
22737;SDS011;11536;50.860;4.286;2024-03-23T08:18:30;8.25;;;2.05;;
22737;SDS011;11536;50.860;4.286;2024-03-23T08:20:57;8.25;;;1.45;;
22737;SDS011;11536;50.860;4.286;2024-03-23T08:23:23;6.55;;;1.15;;
22737;SDS011;11536;50.860;4.286;2024-03-23T08:25:50;8.55;;;1.48;;
22737;SDS011;11536;50.860;4.286;2024-03-23T08:28:15;7.45;;;1.13;;
22737;SDS011;11536;50.860;4.286;2024-03-23T08:30:42;4.13;;;1.20;;
22737;SDS011;11536;50.860;4.286;2024-03-23T08:33:07;7.05;;;1.40;;
22737;SDS011;11536;50.860;4.286;2024-03-23T08:35:33;8.25;;;1.42;;
22737;SDS011;11536;50.860;4.286;2024-03-23T08:37:59;10.60;;;1.55;;
22737;SDS011;11536;50.860;4.286;2024-03-23T08:40:25;5.57;;;1.02;;
22737;SDS011;11536;50.860;4.286;2024-03-23T08:42:51;6.47;;;1.40;;
22737;SDS011;11536;50.860;4.286;2024-03-23T08:45:16;7.05;;;1.45;;
22737;SDS011;11536;50.860;4.286;2024-03-23T08:47:42;5.88;;;1.52;;
22737;SDS011;11536;50.860;4.286;2024-03-23T08:50:08;6.45;;;1.60;;
22737;SDS011;11536;50.860;4.286;2024-03-23T08:52:33;9.85;;;1.45;;
22737;SDS011;11536;50.860;4.286;2024-03-23T08:54:59;7.88;;;1.67;;
22737;SDS011;11536;50.860;4.286;2024-03-23T08:57:25;10.63;;;1.42;;
22737;SDS011;11536;50.860;4.286;2024-03-23T08:59:50;8.18;;;1.48;;
22737;SDS011;11536;50.860;4.286;2024-03-23T09:02:16;7.47;;;1.35;;
22737;SDS011;11536;50.860;4.286;2024-03-23T09:04:42;7.65;;;1.42;;
22737;SDS011;11536;50.860;4.286;2024-03-23T09:07:08;6.53;;;1.40;;
22737;SDS011;11536;50.860;4.286;2024-03-23T09:09:34;10.43;;;2.13;;
22737;SDS011;11536;50.860;4.286;2024-03-23T09:12:00;12.23;;;1.85;;
22737;SDS011;11536;50.860;4.286;2024-03-23T09:14:25;7.28;;;1.27;;
22737;SDS011;11536;50.860;4.286;2024-03-23T09:16:51;7.85;;;1.60;;
22737;SDS011;11536;50.860;4.286;2024-03-23T09:19:17;8.35;;;2.03;;
22737;SDS011;11536;50.860;4.286;2024-03-23T09:21:43;8.10;;;2.00;;
22737;SDS011;11536;50.860;4.286;2024-03-23T09:24:08;7.28;;;1.45;;
22737;SDS011;11536;50.860;4.286;2024-03-23T09:26:34;6.32;;;2.13;;
22737;SDS011;11536;50.860;4.286;2024-03-23T09:29:00;7.70;;;1.75;;
22737;SDS011;11536;50.860;4.286;2024-03-23T09:31:25;8.60;;;2.13;;
22737;SDS011;11536;50.860;4.286;2024-03-23T09:33:51;7.97;;;2.45;;
22737;SDS011;11536;50.860;4.286;2024-03-23T09:36:16;6.28;;;1.58;;
22737;SDS011;11536;50.860;4.286;2024-03-23T09:38:42;8.90;;;2.50;;
22737;SDS011;11536;50.860;4.286;2024-03-23T09:41:08;9.18;;;2.00;;
22737;SDS011;11536;50.860;4.286;2024-03-23T09:43:34;5.32;;;1.77;;
22737;SDS011;11536;50.860;4.286;2024-03-23T09:46:01;6.90;;;2.30;;
22737;SDS011;11536;50.860;4.286;2024-03-23T09:48:27;5.93;;;2.28;;
22737;SDS011;11536;50.860;4.286;2024-03-23T09:50:53;7.05;;;2.22;;
22737;SDS011;11536;50.860;4.286;2024-03-23T09:53:19;10.70;;;2.08;;
22737;SDS011;11536;50.860;4.286;2024-03-23T09:55:44;5.97;;;2.03;;
22737;SDS011;11536;50.860;4.286;2024-03-23T09:58:16;6.95;;;2.08;;
22737;SDS011;11536;50.860;4.286;2024-03-23T10:00:43;6.32;;;1.65;;
22737;SDS011;11536;50.860;4.286;2024-03-23T10:03:09;9.75;;;1.88;;
22737;SDS011;11536;50.860;4.286;2024-03-23T10:05:36;7.18;;;1.95;;
22737;SDS011;11536;50.860;4.286;2024-03-23T10:10:40;6.80;;;1.67;;
22737;SDS011;11536;50.860;4.286;2024-03-23T10:13:07;6.45;;;1.67;;
22737;SDS011;11536;50.860;4.286;2024-03-23T10:15:35;5.55;;;1.40;;
22737;SDS011;11536;50.860;4.286;2024-03-23T10:18:20;6.32;;;1.80;;
22737;SDS011;11536;50.860;4.286;2024-03-23T10:21:31;7.10;;;1.90;;
22737;SDS011;11536;50.860;4.286;2024-03-23T10:23:42;4.22;;;1.02;;
22737;SDS011;11536;50.860;4.286;2024-03-23T10:26:13;7.90;;;1.10;;
22737;SDS011;11536;50.860;4.286;2024-03-23T10:28:52;6.40;;;1.10;;
22737;SDS011;11536;50.860;4.286;2024-03-23T10:31:32;5.63;;;1.08;;
22737;SDS011;11536;50.860;4.286;2024-03-23T10:34:00;5.50;;;1.35;;
22737;SDS011;11536;50.860;4.286;2024-03-23T10:36:27;3.42;;;0.90;;
22737;SDS011;11536;50.860;4.286;2024-03-23T10:38:55;4.63;;;0.80;;
22737;SDS011;11536;50.860;4.286;2024-03-23T10:41:23;5.07;;;1.00;;
22737;SDS011;11536;50.860;4.286;2024-03-23T10:43:53;7.10;;;1.05;;
22737;SDS011;11536;50.860;4.286;2024-03-23T10:46:20;4.70;;;0.73;;
22737;SDS011;11536;50.860;4.286;2024-03-23T10:48:46;4.30;;;0.85;;
22737;SDS011;11536;50.860;4.286;2024-03-23T10:51:12;5.38;;;1.23;;
22737;SDS011;11536;50.860;4.286;2024-03-23T10:53:39;6.65;;;1.17;;
22737;SDS011;11536;50.860;4.286;2024-03-23T10:56:05;5.18;;;0.93;;
22737;SDS011;11536;50.860;4.286;2024-03-23T10:58:33;2.80;;;0.60;;
22737;SDS011;11536;50.860;4.286;2024-03-23T11:01:04;5.38;;;1.17;;
22737;SDS011;11536;50.860;4.286;2024-03-23T11:06:00;3.65;;;0.70;;
22737;SDS011;11536;50.860;4.286;2024-03-23T11:11:18;2.90;;;0.57;;
22737;SDS011;11536;50.860;4.286;2024-03-23T11:13:46;3.22;;;0.40;;
22737;SDS011;11536;50.860;4.286;2024-03-23T11:18:46;3.03;;;0.50;;
22737;SDS011;11536;50.860;4.286;2024-03-23T11:21:16;3.95;;;0.47;;
22737;SDS011;11536;50.860;4.286;2024-03-23T11:24:16;2.50;;;0.60;;
22737;SDS011;11536;50.860;4.286;2024-03-23T11:26:42;4.20;;;0.60;;
22737;SDS011;11536;50.860;4.286;2024-03-23T11:29:11;6.38;;;0.95;;
22737;SDS011;11536;50.860;4.286;2024-03-23T11:31:37;4.30;;;0.47;;
22737;SDS011;11536;50.860;4.286;2024-03-23T11:34:06;3.83;;;0.80;;
22737;SDS011;11536;50.860;4.286;2024-03-23T11:36:32;3.80;;;0.60;;
22737;SDS011;11536;50.860;4.286;2024-03-23T11:38:58;4.70;;;0.65;;
22737;SDS011;11536;50.860;4.286;2024-03-23T11:41:23;4.20;;;0.60;;
22737;SDS011;11536;50.860;4.286;2024-03-23T11:43:50;5.20;;;0.50;;
22737;SDS011;11536;50.860;4.286;2024-03-23T11:46:22;4.75;;;0.45;;
22737;SDS011;11536;50.860;4.286;2024-03-23T11:48:51;7.13;;;0.95;;
22737;SDS011;11536;50.860;4.286;2024-03-23T11:51:16;6.88;;;0.70;;
22737;SDS011;11536;50.860;4.286;2024-03-23T11:53:42;9.05;;;1.10;;
22737;SDS011;11536;50.860;4.286;2024-03-23T11:56:08;6.40;;;0.95;;
22737;SDS011;11536;50.860;4.286;2024-03-23T11:58:34;9.75;;;1.00;;
22737;SDS011;11536;50.860;4.286;2024-03-23T12:01:01;6.38;;;0.70;;
22737;SDS011;11536;50.860;4.286;2024-03-23T12:03:28;4.82;;;0.82;;
22737;SDS011;11536;50.860;4.286;2024-03-23T12:05:55;5.00;;;0.93;;
22737;SDS011;11536;50.860;4.286;2024-03-23T12:08:29;8.35;;;1.17;;
22737;SDS011;11536;50.860;4.286;2024-03-23T12:13:37;3.67;;;0.60;;
22737;SDS011;11536;50.860;4.286;2024-03-23T12:16:12;5.10;;;0.50;;
22737;SDS011;11536;50.860;4.286;2024-03-23T12:18:43;2.35;;;0.35;;
22737;SDS011;11536;50.860;4.286;2024-03-23T12:21:10;3.40;;;0.32;;
22737;SDS011;11536;50.860;4.286;2024-03-23T12:23:36;0.65;;;0.20;;
22737;SDS011;11536;50.860;4.286;2024-03-23T12:26:04;2.70;;;0.60;;
22737;SDS011;11536;50.860;4.286;2024-03-23T12:28:30;4.07;;;0.52;;
22737;SDS011;11536;50.860;4.286;2024-03-23T12:30:56;0.75;;;0.20;;
22737;SDS011;11536;50.860;4.286;2024-03-23T12:33:22;3.65;;;0.52;;
22737;SDS011;11536;50.860;4.286;2024-03-23T12:35:50;3.63;;;0.55;;
22737;SDS011;11536;50.860;4.286;2024-03-23T12:38:16;3.00;;;0.55;;
22737;SDS011;11536;50.860;4.286;2024-03-23T12:40:45;2.75;;;0.38;;
22737;SDS011;11536;50.860;4.286;2024-03-23T12:43:15;3.30;;;0.52;;
22737;SDS011;11536;50.860;4.286;2024-03-23T12:45:46;6.30;;;0.68;;
22737;SDS011;11536;50.860;4.286;2024-03-23T12:48:12;5.95;;;0.73;;
22737;SDS011;11536;50.860;4.286;2024-03-23T12:50:38;7.22;;;0.70;;
22737;SDS011;11536;50.860;4.286;2024-03-23T12:53:04;5.45;;;0.50;;
22737;SDS011;11536;50.860;4.286;2024-03-23T12:55:29;4.55;;;0.68;;
22737;SDS011;11536;50.860;4.286;2024-03-23T12:57:55;4.60;;;0.47;;
22737;SDS011;11536;50.860;4.286;2024-03-23T13:00:21;2.08;;;0.47;;
22737;SDS011;11536;50.860;4.286;2024-03-23T13:02:47;5.15;;;0.43;;
22737;SDS011;11536;50.860;4.286;2024-03-23T13:05:13;4.32;;;0.40;;
22737;SDS011;11536;50.860;4.286;2024-03-23T13:07:38;2.72;;;0.40;;
22737;SDS011;11536;50.860;4.286;2024-03-23T13:10:07;5.43;;;0.47;;
22737;SDS011;11536;50.860;4.286;2024-03-23T13:12:33;2.70;;;0.30;;
22737;SDS011;11536;50.860;4.286;2024-03-23T13:14:59;1.10;;;0.25;;
22737;SDS011;11536;50.860;4.286;2024-03-23T13:17:26;6.53;;;0.50;;
22737;SDS011;11536;50.860;4.286;2024-03-23T13:19:52;1.70;;;0.35;;
22737;SDS011;11536;50.860;4.286;2024-03-23T13:22:18;3.03;;;0.55;;
22737;SDS011;11536;50.860;4.286;2024-03-23T13:24:44;4.65;;;0.40;;
22737;SDS011;11536;50.860;4.286;2024-03-23T13:27:10;4.40;;;0.70;;
22737;SDS011;11536;50.860;4.286;2024-03-23T13:29:36;2.35;;;0.40;;
22737;SDS011;11536;50.860;4.286;2024-03-23T13:32:02;2.38;;;0.30;;
22737;SDS011;11536;50.860;4.286;2024-03-23T13:34:28;3.95;;;0.47;;
22737;SDS011;11536;50.860;4.286;2024-03-23T13:36:54;3.22;;;0.50;;
22737;SDS011;11536;50.860;4.286;2024-03-23T13:39:23;4.43;;;0.63;;
22737;SDS011;11536;50.860;4.286;2024-03-23T13:41:49;6.00;;;0.70;;
22737;SDS011;11536;50.860;4.286;2024-03-23T13:44:15;4.45;;;0.55;;
22737;SDS011;11536;50.860;4.286;2024-03-23T13:46:41;3.75;;;0.60;;
22737;SDS011;11536;50.860;4.286;2024-03-23T13:49:08;3.75;;;0.50;;
22737;SDS011;11536;50.860;4.286;2024-03-23T13:51:54;1.70;;;0.73;;
22737;SDS011;11536;50.860;4.286;2024-03-23T13:54:20;2.97;;;0.68;;
22737;SDS011;11536;50.860;4.286;2024-03-23T13:56:55;6.47;;;0.55;;
22737;SDS011;11536;50.860;4.286;2024-03-23T13:59:22;2.22;;;0.35;;
22737;SDS011;11536;50.860;4.286;2024-03-23T14:01:49;3.28;;;0.38;;
22737;SDS011;11536;50.860;4.286;2024-03-23T14:04:15;4.22;;;0.50;;
22737;SDS011;11536;50.860;4.286;2024-03-23T14:06:45;5.35;;;0.55;;
22737;SDS011;11536;50.860;4.286;2024-03-23T14:09:11;2.28;;;0.55;;
22737;SDS011;11536;50.860;4.286;2024-03-23T14:11:37;4.03;;;0.77;;
22737;SDS011;11536;50.860;4.286;2024-03-23T14:14:03;3.08;;;0.77;;
22737;SDS011;11536;50.860;4.286;2024-03-23T14:16:32;4.80;;;1.10;;
22737;SDS011;11536;50.860;4.286;2024-03-23T14:18:58;5.18;;;0.73;;
22737;SDS011;11536;50.860;4.286;2024-03-23T14:21:24;3.90;;;0.57;;
22737;SDS011;11536;50.860;4.286;2024-03-23T14:23:50;5.10;;;1.00;;
22737;SDS011;11536;50.860;4.286;2024-03-23T14:26:15;5.82;;;0.90;;
22737;SDS011;11536;50.860;4.286;2024-03-23T14:28:41;4.25;;;0.50;;
22737;SDS011;11536;50.860;4.286;2024-03-23T14:31:07;5.18;;;0.52;;
22737;SDS011;11536;50.860;4.286;2024-03-23T14:33:38;5.68;;;0.88;;
22737;SDS011;11536;50.860;4.286;2024-03-23T14:36:10;2.28;;;0.40;;
22737;SDS011;11536;50.860;4.286;2024-03-23T14:38:36;4.57;;;0.85;;
22737;SDS011;11536;50.860;4.286;2024-03-23T14:41:02;3.28;;;0.68;;
22737;SDS011;11536;50.860;4.286;2024-03-23T14:43:29;2.55;;;0.50;;
22737;SDS011;11536;50.860;4.286;2024-03-23T14:48:38;4.57;;;0.73;;
22737;SDS011;11536;50.860;4.286;2024-03-23T14:51:04;5.50;;;0.70;;
22737;SDS011;11536;50.860;4.286;2024-03-23T14:53:33;4.60;;;0.60;;
22737;SDS011;11536;50.860;4.286;2024-03-23T14:56:00;5.95;;;0.60;;
22737;SDS011;11536;50.860;4.286;2024-03-23T14:58:27;3.92;;;0.75;;
22737;SDS011;11536;50.860;4.286;2024-03-23T15:00:59;4.70;;;0.68;;
22737;SDS011;11536;50.860;4.286;2024-03-23T15:03:29;3.55;;;0.63;;
22737;SDS011;11536;50.860;4.286;2024-03-23T15:05:55;10.75;;;1.42;;
22737;SDS011;11536;50.860;4.286;2024-03-23T15:08:21;7.70;;;1.08;;
22737;SDS011;11536;50.860;4.286;2024-03-23T15:10:47;5.15;;;0.80;;
22737;SDS011;11536;50.860;4.286;2024-03-23T15:13:14;4.75;;;1.00;;
22737;SDS011;11536;50.860;4.286;2024-03-23T15:15:41;3.53;;;0.70;;
22737;SDS011;11536;50.860;4.286;2024-03-23T15:18:10;4.57;;;0.40;;
22737;SDS011;11536;50.860;4.286;2024-03-23T15:20:37;6.20;;;0.90;;
22737;SDS011;11536;50.860;4.286;2024-03-23T15:23:03;6.57;;;0.50;;
22737;SDS011;11536;50.860;4.286;2024-03-23T15:25:30;2.63;;;0.60;;
22737;SDS011;11536;50.860;4.286;2024-03-23T15:27:56;3.08;;;0.90;;
22737;SDS011;11536;50.860;4.286;2024-03-23T15:30:22;3.03;;;0.60;;
22737;SDS011;11536;50.860;4.286;2024-03-23T15:32:48;3.80;;;0.60;;
22737;SDS011;11536;50.860;4.286;2024-03-23T15:35:14;4.30;;;0.60;;
22737;SDS011;11536;50.860;4.286;2024-03-23T15:37:39;7.68;;;0.60;;
22737;SDS011;11536;50.860;4.286;2024-03-23T15:40:06;2.08;;;0.60;;
22737;SDS011;11536;50.860;4.286;2024-03-23T15:42:32;5.53;;;1.02;;
22737;SDS011;11536;50.860;4.286;2024-03-23T15:44:58;7.00;;;1.17;;
22737;SDS011;11536;50.860;4.286;2024-03-23T15:47:24;4.50;;;1.02;;
22737;SDS011;11536;50.860;4.286;2024-03-23T15:49:50;7.93;;;1.05;;
22737;SDS011;11536;50.860;4.286;2024-03-23T15:52:18;5.22;;;0.73;;